Hundvaag 1 weather for Jun 2001
Month no. 168
Obs.
Da.
Temp. Dew Point Precip. Wind
Speed
Wind gusts Cloud cover Press. Humidity Wind dir. Sunny OPT
01.06.2001 9,6   1,0     0 1011,7     1  
02.06.2001 10,1   0,6     2 1008,5     1  
03.06.2001 10,9   0,0     10 1012,0     1  
04.06.2001 11,3   0,0     0 1012,7        
05.06.2001 9,6   0,9     0 1013,1        
06.06.2001 10,3   0,0     0 1008,9        
07.06.2001 9,7   8,7     0 1005,1        
08.06.2001 7,7   11,2     0 1005,5     1  
09.06.2001 10,7   1,3     5 1011,2     1  
10.06.2001 11,6   0,0     8 1013,5     1  
11.06.2001 7,9   0,0     8 1013,5     1  
12.06.2001 7,6   0,0     9 1013,2     1  
13.06.2001 7,8   0,0     10 1014,3     1  
14.06.2001 9,2   0,2     0 1013,3     1  
15.06.2001 18,1   0,0     10 1013,2     1  
16.06.2001 16,2   0,0     10 1011,7     1  
17.06.2001 14,3   0,2     2 1012,7     1  
18.06.2001 12,5   0,0     5 1014,4     1  
19.06.2001 10,2   0,0     0 1018,4     1  
20.06.2001 12,7   6,8     0 1021,7     1  
21.06.2001 10,5   19,9     0 1007,6     1  
22.06.2001 10,8   1,5     10 1011,7     1  
23.06.2001 13,8   0,0     0 1015,9     1  
24.06.2001 12,0   0,0     0 1017,2        
25.06.2001 11,2   0,0     0 1018,7     1  
26.06.2001 11,5   0,0     0 1018,7     1  
27.06.2001 13,4   0,0     3 1014,4     1  
28.06.2001 16,8   0,0     0 1010,0     1  
29.06.2001 14,6   2,5     6 1012,8     1  
30.06.2001 17,1   0,9     1 1012,0     1  
                       
Avrg/Sum 11,7   55,7     3,3 1012,9     25